createdAt,value
2023-02-06T00:00:51.519Z,48.30
2023-02-06T00:03:20.078Z,41.55
2023-02-06T00:05:55.267Z,43.45
2023-02-06T00:08:22.082Z,44.78
2023-02-06T00:10:48.998Z,46.90
2023-02-06T00:13:15.661Z,44.00
2023-02-06T00:15:42.617Z,43.20
2023-02-06T00:18:09.273Z,43.15
2023-02-06T00:20:37.129Z,41.72
2023-02-06T00:23:04.015Z,49.72
2023-02-06T00:25:30.936Z,39.38
2023-02-06T00:27:57.718Z,46.92
2023-02-06T00:30:24.467Z,44.95
2023-02-06T00:32:51.201Z,43.63
2023-02-06T00:35:17.976Z,38.70
2023-02-06T00:37:44.742Z,43.38
2023-02-06T00:40:11.908Z,50.92
2023-02-06T00:42:38.553Z,48.95
2023-02-06T00:45:06.513Z,46.00
2023-02-06T00:47:33.793Z,40.40
2023-02-06T00:50:00.532Z,50.58
2023-02-06T00:52:27.640Z,41.88
2023-02-06T00:54:54.373Z,44.90
2023-02-06T00:57:21.084Z,48.80
2023-02-06T00:59:47.885Z,49.65
2023-02-06T01:02:14.677Z,46.42
2023-02-06T01:04:41.327Z,47.33
2023-02-06T01:07:08.040Z,42.20
2023-02-06T01:09:34.804Z,50.40
2023-02-06T01:12:01.444Z,47.45
2023-02-06T01:14:28.131Z,47.92
2023-02-06T01:16:54.805Z,44.03
2023-02-06T01:19:21.495Z,41.40
2023-02-06T01:21:48.246Z,44.55
2023-02-06T01:24:14.937Z,55.33
2023-02-06T01:26:41.660Z,49.92
2023-02-06T01:29:08.409Z,41.83
2023-02-06T01:31:35.181Z,30.85
2023-02-06T01:34:01.889Z,36.40
2023-02-06T01:36:29.019Z,43.67
2023-02-06T01:38:55.820Z,38.00
2023-02-06T01:41:24.013Z,40.97
2023-02-06T01:44:13.904Z,55.28
2023-02-06T01:46:43.111Z,45.63
2023-02-06T01:49:15.831Z,38.78
2023-02-06T01:51:43.009Z,44.72
2023-02-06T01:54:10.932Z,40.10
2023-02-06T01:56:43.289Z,41.60
2023-02-06T01:59:10.082Z,47.47
2023-02-06T02:01:36.784Z,46.40
2023-02-06T02:04:07.298Z,45.17
2023-02-06T02:06:35.087Z,54.25
2023-02-06T02:09:03.723Z,54.72
2023-02-06T02:11:36.375Z,45.28
2023-02-06T02:14:06.358Z,43.13
2023-02-06T02:16:47.104Z,51.22
2023-02-06T02:19:44.592Z,40.60
2023-02-06T02:22:23.167Z,46.13
2023-02-06T02:25:10.830Z,35.13
2023-02-06T02:28:15.940Z,50.90
2023-02-06T02:30:45.457Z,45.47
2023-02-06T02:33:21.238Z,35.50
2023-02-06T02:35:59.643Z,38.40
2023-02-06T02:38:43.778Z,30.27
2023-02-06T02:41:15.505Z,36.92
2023-02-06T02:46:22.141Z,44.15
2023-02-06T02:48:53.368Z,33.38
2023-02-06T02:51:20.363Z,39.38
2023-02-06T02:53:47.063Z,28.83
2023-02-06T02:56:19.138Z,35.03
2023-02-06T02:58:49.163Z,28.85
2023-02-06T03:01:21.305Z,37.33
2023-02-06T03:03:50.512Z,33.55
2023-02-06T03:06:44.976Z,41.58
2023-02-06T03:09:16.807Z,31.10
2023-02-06T03:11:50.163Z,32.60
2023-02-06T03:14:27.694Z,34.63
2023-02-06T03:17:09.433Z,46.13
2023-02-06T03:19:43.942Z,35.63
2023-02-06T03:22:11.891Z,31.65
2023-02-06T03:24:39.747Z,34.38
2023-02-06T03:27:13.817Z,41.58
2023-02-06T03:29:42.454Z,44.08
2023-02-06T03:32:24.925Z,38.78
2023-02-06T03:35:00.131Z,41.78
2023-02-06T03:37:28.457Z,39.03
2023-02-06T03:39:57.839Z,44.63
2023-02-06T03:42:25.803Z,38.63
2023-02-06T03:45:00.321Z,43.03
2023-02-06T03:47:29.397Z,39.15
2023-02-06T03:49:59.943Z,42.53
2023-02-06T03:52:32.323Z,32.97
2023-02-06T03:55:05.310Z,34.10
2023-02-06T03:57:33.980Z,35.28
2023-02-06T04:00:00.774Z,33.65
2023-02-06T04:02:27.729Z,31.45
2023-02-06T04:04:54.498Z,35.63
2023-02-06T04:07:27.906Z,42.20
2023-02-06T04:09:54.648Z,23.38
2023-02-06T04:12:22.446Z,30.98
2023-02-06T04:14:49.206Z,46.53
2023-02-06T04:17:28.155Z,26.48
2023-02-06T04:20:04.607Z,28.10
2023-02-06T04:22:31.402Z,30.58
2023-02-06T04:24:58.061Z,37.78
2023-02-06T04:27:24.852Z,33.40
2023-02-06T04:29:51.579Z,30.88
2023-02-06T04:32:18.254Z,37.22
2023-02-06T04:34:44.922Z,29.10
2023-02-06T04:37:12.518Z,31.90
2023-02-06T04:39:39.423Z,29.08
2023-02-06T04:42:06.579Z,25.45
2023-02-06T04:44:33.813Z,39.30
2023-02-06T04:47:00.870Z,30.98
2023-02-06T04:49:27.575Z,35.10
2023-02-06T04:51:54.263Z,45.50
2023-02-06T04:54:21.277Z,40.42
2023-02-06T04:56:48.050Z,36.35
2023-02-06T04:59:14.798Z,37.70
2023-02-06T05:01:41.996Z,34.58
2023-02-06T05:04:08.721Z,38.90
2023-02-06T05:06:36.363Z,30.25
2023-02-06T05:09:03.959Z,37.53
2023-02-06T05:11:30.696Z,29.95
2023-02-06T05:13:57.375Z,34.13
2023-02-06T05:16:24.157Z,40.58
2023-02-06T05:18:56.257Z,31.92
2023-02-06T05:21:24.284Z,35.92
2023-02-06T05:23:51.172Z,38.00
2023-02-06T05:26:17.999Z,39.30
2023-02-06T05:28:44.662Z,37.60
2023-02-06T05:31:18.269Z,42.22
2023-02-06T05:33:46.911Z,31.65
2023-02-06T05:36:13.861Z,34.47
2023-02-06T05:38:40.538Z,33.80
2023-02-06T05:41:07.298Z,31.10
2023-02-06T05:43:33.970Z,33.50
2023-02-06T05:46:01.148Z,48.10
2023-02-06T05:48:30.476Z,36.50
2023-02-06T05:50:58.261Z,33.03
2023-02-06T05:53:25.040Z,37.67
2023-02-06T05:55:51.929Z,40.28
2023-02-06T05:58:18.787Z,26.25
2023-02-06T06:00:45.614Z,32.72
2023-02-06T06:03:12.420Z,41.47
2023-02-06T06:05:39.105Z,34.05
2023-02-06T06:08:05.782Z,32.67
2023-02-06T06:10:32.485Z,34.53
2023-02-06T06:12:59.777Z,41.47
2023-02-06T06:15:26.519Z,34.95
2023-02-06T06:17:53.353Z,30.67
2023-02-06T06:20:20.300Z,38.97
2023-02-06T06:22:46.969Z,42.65
2023-02-06T06:25:13.759Z,27.08
2023-02-06T06:27:40.478Z,43.45
2023-02-06T06:30:07.870Z,39.83
2023-02-06T06:32:34.631Z,39.55
2023-02-06T06:35:01.543Z,41.03
2023-02-06T06:37:28.371Z,33.72
2023-02-06T06:39:55.136Z,39.88
2023-02-06T06:42:21.875Z,33.60
2023-02-06T06:44:48.558Z,28.92
2023-02-06T06:47:15.281Z,49.15
2023-02-06T06:49:41.968Z,38.72
2023-02-06T06:52:16.313Z,39.15
2023-02-06T06:54:52.313Z,29.65
2023-02-06T06:57:20.258Z,32.22
2023-02-06T06:59:46.971Z,28.00
2023-02-06T07:02:14.070Z,28.10
2023-02-06T07:04:40.758Z,46.63
2023-02-06T07:07:08.266Z,25.30
2023-02-06T07:09:35.162Z,22.23
2023-02-06T07:12:01.893Z,30.70
2023-02-06T07:14:28.536Z,34.55
2023-02-06T07:16:56.248Z,26.00
2023-02-06T07:19:23.253Z,29.50
2023-02-06T07:21:50.044Z,27.00
2023-02-06T07:24:17.545Z,36.75
2023-02-06T07:26:44.707Z,37.50
2023-02-06T07:29:11.460Z,32.65
2023-02-06T07:31:38.203Z,31.30
2023-02-06T07:34:04.973Z,23.58
2023-02-06T07:36:31.700Z,30.73
2023-02-06T07:38:58.476Z,24.27
2023-02-06T07:41:25.269Z,28.85
2023-02-06T07:43:54.140Z,36.72
2023-02-06T07:46:21.180Z,32.28
2023-02-06T07:48:48.005Z,28.60
2023-02-06T07:51:14.645Z,27.58
2023-02-06T07:53:41.295Z,27.48
2023-02-06T07:56:15.179Z,34.88
2023-02-06T07:58:42.262Z,35.47
2023-02-06T08:01:09.520Z,28.52
2023-02-06T08:03:36.805Z,25.95
2023-02-06T08:06:15.139Z,39.25
2023-02-06T08:08:42.498Z,34.47
2023-02-06T08:11:15.655Z,31.95
2023-02-06T08:13:43.843Z,40.03
2023-02-06T08:16:13.542Z,35.05
2023-02-06T08:18:40.433Z,35.58
2023-02-06T08:21:12.615Z,34.95
2023-02-06T08:23:39.737Z,36.30
2023-02-06T08:26:10.381Z,35.92
2023-02-06T08:28:38.266Z,38.47
2023-02-06T08:31:17.844Z,32.70
2023-02-06T08:33:45.476Z,26.63
2023-02-06T08:36:13.090Z,29.42
2023-02-06T08:38:39.971Z,27.95
2023-02-06T08:41:22.140Z,35.90
2023-02-06T08:44:03.075Z,35.28
2023-02-06T08:46:32.088Z,29.98
2023-02-06T08:49:01.424Z,31.05
2023-02-06T08:51:28.828Z,33.03
2023-02-06T08:54:04.257Z,43.35
2023-02-06T08:56:32.316Z,43.65
2023-02-06T08:58:59.781Z,42.25
2023-02-06T09:01:28.203Z,43.17
2023-02-06T09:03:56.894Z,43.72
2023-02-06T09:06:25.436Z,40.17
2023-02-06T09:08:52.985Z,34.30
2023-02-06T09:11:21.840Z,35.28
2023-02-06T09:13:49.578Z,41.50
2023-02-06T09:16:18.797Z,46.25
2023-02-06T09:18:46.146Z,34.17
2023-02-06T09:21:16.579Z,45.92
2023-02-06T09:23:46.087Z,51.45
2023-02-06T09:26:15.940Z,41.05
2023-02-06T09:28:42.871Z,46.08
2023-02-06T09:31:10.763Z,44.55
2023-02-06T09:34:57.326Z,32.35
2023-02-06T09:37:24.032Z,44.75
2023-02-06T09:39:50.735Z,40.65
2023-02-06T09:42:34.649Z,41.78
2023-02-06T09:45:08.469Z,31.52
2023-02-06T09:47:39.719Z,45.40
2023-02-06T09:50:19.406Z,34.30
2023-02-06T09:53:09.859Z,31.25
2023-02-06T09:55:55.533Z,41.78
2023-02-06T09:58:48.788Z,28.98
2023-02-06T10:01:20.810Z,28.60
2023-02-06T10:04:25.459Z,29.40
2023-02-06T10:07:06.494Z,25.02
2023-02-06T10:09:39.011Z,36.13
2023-02-06T10:12:15.904Z,33.67
2023-02-06T10:14:49.058Z,29.15
2023-02-06T10:17:28.125Z,31.20
2023-02-06T10:20:22.348Z,28.90
2023-02-06T10:23:23.886Z,34.92
2023-02-06T10:26:05.048Z,23.45
2023-02-06T10:28:35.244Z,42.00
2023-02-06T10:31:02.030Z,29.10
2023-02-06T10:33:40.919Z,33.75
2023-02-06T10:36:28.080Z,24.88
2023-02-06T10:39:18.262Z,23.90
2023-02-06T10:42:22.921Z,39.38
2023-02-06T10:45:19.570Z,32.30
2023-02-06T10:47:59.186Z,28.20
2023-02-06T10:50:39.354Z,27.98
2023-02-06T10:53:36.877Z,33.40
2023-02-06T10:56:08.336Z,29.75
2023-02-06T10:58:53.447Z,37.78
2023-02-06T11:01:26.373Z,24.92
2023-02-06T11:04:11.934Z,26.73
2023-02-06T11:06:42.450Z,33.35
2023-02-06T11:09:10.244Z,30.65
2023-02-06T11:11:41.215Z,24.73
2023-02-06T11:14:15.080Z,29.05
2023-02-06T11:16:42.808Z,25.25
2023-02-06T11:19:19.141Z,26.58
2023-02-06T11:21:47.715Z,25.10
2023-02-06T11:24:17.124Z,26.90
2023-02-06T11:26:48.953Z,26.20
2023-02-06T11:29:22.613Z,25.10
2023-02-06T11:31:54.017Z,33.92
2023-02-06T11:34:26.082Z,25.15
2023-02-06T11:37:00.448Z,21.30
2023-02-06T11:39:35.741Z,22.35
2023-02-06T11:42:18.235Z,20.10
2023-02-06T11:44:48.455Z,21.52
2023-02-06T11:47:41.532Z,18.92
2023-02-06T11:50:14.429Z,26.10
2023-02-06T11:52:47.163Z,27.48
2023-02-06T11:55:27.578Z,25.77
2023-02-06T11:58:17.266Z,29.55
2023-02-06T12:00:54.571Z,17.58
2023-02-06T12:03:50.245Z,22.13
2023-02-06T12:06:39.173Z,24.75
2023-02-06T12:09:12.831Z,29.90
2023-02-06T12:12:12.010Z,27.02
2023-02-06T12:14:46.145Z,25.88
2023-02-06T12:17:33.027Z,25.67
2023-02-06T12:20:15.027Z,17.35
2023-02-06T12:22:50.270Z,26.65
2023-02-06T12:25:37.228Z,21.08
2023-02-06T12:28:37.020Z,18.00
2023-02-06T12:31:15.690Z,20.48
2023-02-06T12:33:55.327Z,22.48
2023-02-06T12:36:25.797Z,26.15
2023-02-06T12:39:02.709Z,27.98
2023-02-06T12:41:41.575Z,25.65
2023-02-06T12:44:19.789Z,23.48
2023-02-06T12:46:52.322Z,26.58
2023-02-06T12:49:35.278Z,25.15
2023-02-06T12:52:11.874Z,18.52
2023-02-06T12:54:47.877Z,22.80
2023-02-06T12:57:19.856Z,24.02
2023-02-06T13:00:28.370Z,17.55
2023-02-06T13:03:20.971Z,21.67
2023-02-06T13:05:54.534Z,22.67
2023-02-06T13:08:36.470Z,24.95
2023-02-06T13:11:14.363Z,25.63
2023-02-06T13:13:42.389Z,20.30
2023-02-06T13:16:09.890Z,24.30
2023-02-06T13:18:44.479Z,24.30
2023-02-06T13:21:30.605Z,23.80
2023-02-06T13:24:03.257Z,22.88
2023-02-06T13:26:51.322Z,23.65
2023-02-06T13:29:41.678Z,25.40
2023-02-06T13:32:22.344Z,20.85
2023-02-06T13:34:49.102Z,22.73
2023-02-06T13:37:33.975Z,20.40
2023-02-06T13:40:25.747Z,18.55
2023-02-06T13:43:04.603Z,23.15
2023-02-06T13:45:42.755Z,14.57
2023-02-06T13:48:35.477Z,22.27
2023-02-06T13:51:02.185Z,20.60
2023-02-06T13:53:41.653Z,27.33
2023-02-06T13:56:37.113Z,24.15
2023-02-06T13:59:13.470Z,19.55
2023-02-06T14:01:40.758Z,19.95
2023-02-06T14:04:14.024Z,27.98
2023-02-06T14:06:51.534Z,17.65
2023-02-06T14:09:54.202Z,18.55
2023-02-06T14:12:44.484Z,19.75
2023-02-06T14:15:42.073Z,20.65
2023-02-06T14:18:19.522Z,29.00
2023-02-06T14:21:11.676Z,23.00
2023-02-06T14:24:05.933Z,24.45
2023-02-06T14:27:11.089Z,22.63
2023-02-06T14:29:54.787Z,23.15
2023-02-06T14:32:47.820Z,20.60
2023-02-06T14:35:27.279Z,23.80
2023-02-06T14:38:20.786Z,22.38
2023-02-06T14:40:51.655Z,21.30
2023-02-06T14:43:22.904Z,18.63
2023-02-06T14:46:08.862Z,22.50
2023-02-06T14:48:45.310Z,20.10
2023-02-06T14:51:39.339Z,25.13
2023-02-06T14:54:28.740Z,23.77
2023-02-06T14:56:57.294Z,17.23
2023-02-06T14:59:24.265Z,25.77
2023-02-06T15:01:53.496Z,20.60
2023-02-06T15:04:24.684Z,25.15
2023-02-06T15:07:00.305Z,30.25
2023-02-06T15:09:30.426Z,23.10
2023-02-06T15:12:00.524Z,25.70
2023-02-06T15:14:33.788Z,28.42
2023-02-06T15:17:02.612Z,20.38
2023-02-06T15:19:35.710Z,23.52
2023-02-06T15:22:07.170Z,21.95
2023-02-06T15:25:01.614Z,23.48
2023-02-06T15:27:32.096Z,19.67
2023-02-06T15:30:00.161Z,20.15
2023-02-06T15:32:40.372Z,24.23
2023-02-06T15:35:30.026Z,21.05
2023-02-06T15:38:02.726Z,21.10
2023-02-06T15:40:39.078Z,20.98
2023-02-06T15:43:06.467Z,23.83
2023-02-06T15:45:37.052Z,26.95
2023-02-06T15:48:29.849Z,21.42
2023-02-06T15:51:00.286Z,28.58
2023-02-06T15:53:41.416Z,25.27
2023-02-06T15:56:21.808Z,23.67
2023-02-06T15:58:54.878Z,21.20
2023-02-06T16:01:21.720Z,23.23
2023-02-06T16:03:56.900Z,25.10
2023-02-06T16:06:23.709Z,28.25
2023-02-06T16:08:54.041Z,23.10
2023-02-06T16:11:39.740Z,19.40
2023-02-06T16:14:07.004Z,24.13
2023-02-06T16:16:33.918Z,21.83
2023-02-06T16:19:00.725Z,20.15
2023-02-06T16:21:32.473Z,16.13
2023-02-06T16:24:08.268Z,17.92
2023-02-06T16:26:52.297Z,16.15
2023-02-06T16:29:26.900Z,14.90
2023-02-06T16:32:00.300Z,23.83
2023-02-06T16:34:40.853Z,17.85
2023-02-06T16:37:28.914Z,13.98
2023-02-06T16:39:56.025Z,21.23
2023-02-06T16:42:23.986Z,14.57
2023-02-06T16:45:01.147Z,16.23
2023-02-06T16:47:28.122Z,19.33
2023-02-06T16:49:54.911Z,16.52
2023-02-06T16:52:27.497Z,20.38
2023-02-06T16:54:59.062Z,12.43
2023-02-06T16:57:39.098Z,16.23
2023-02-06T17:00:15.736Z,13.05
2023-02-06T17:02:42.464Z,13.88
2023-02-06T17:05:09.189Z,14.85
2023-02-06T17:07:36.246Z,14.00
2023-02-06T17:10:04.060Z,15.45
2023-02-06T17:12:31.118Z,15.82
2023-02-06T17:14:58.414Z,14.98
2023-02-06T17:17:25.239Z,17.92
2023-02-06T17:19:53.905Z,17.60
2023-02-06T17:22:21.072Z,14.27
2023-02-06T17:24:47.868Z,18.55
2023-02-06T17:27:17.625Z,21.58
2023-02-06T17:29:47.121Z,26.30
2023-02-06T17:32:16.113Z,20.77
2023-02-06T17:34:43.056Z,20.30
2023-02-06T17:37:20.402Z,17.75
2023-02-06T17:39:49.346Z,16.90
2023-02-06T17:42:16.301Z,21.20
2023-02-06T17:44:43.616Z,12.25
2023-02-06T17:47:10.909Z,24.17
2023-02-06T17:49:37.657Z,15.25
2023-02-06T17:52:04.546Z,19.30
2023-02-06T17:54:31.372Z,22.30
2023-02-06T17:56:58.078Z,25.38
2023-02-06T17:59:25.102Z,18.08
2023-02-06T18:01:51.949Z,26.48
2023-02-06T18:04:20.354Z,20.33
2023-02-06T18:06:47.936Z,26.10
2023-02-06T18:09:14.926Z,23.00
2023-02-06T18:11:41.799Z,14.40
2023-02-06T18:14:08.614Z,16.42
2023-02-06T18:16:35.401Z,17.23
2023-02-06T18:19:02.368Z,19.30
2023-02-06T18:21:30.902Z,19.77
2023-02-06T18:23:58.351Z,23.50
2023-02-06T18:26:25.077Z,22.30
2023-02-06T18:28:51.787Z,18.75
2023-02-06T18:31:23.279Z,23.60
2023-02-06T18:33:50.502Z,17.67
2023-02-06T18:36:17.963Z,20.58
2023-02-06T18:38:45.235Z,25.25
2023-02-06T18:41:32.248Z,24.55
2023-02-06T18:44:08.294Z,21.25
2023-02-06T18:46:35.409Z,21.45
2023-02-06T18:49:02.408Z,29.52
2023-02-06T18:51:29.523Z,22.25
2023-02-06T18:53:57.501Z,25.88
2023-02-06T18:56:24.219Z,21.30
2023-02-06T18:58:50.992Z,22.50
2023-02-06T19:01:23.155Z,24.88
2023-02-06T19:03:50.748Z,21.05
2023-02-06T19:06:31.808Z,26.27
2023-02-06T19:08:59.124Z,22.83
2023-02-06T19:11:26.442Z,28.88
2023-02-06T19:13:53.969Z,28.35
2023-02-06T19:16:21.292Z,24.15
2023-02-06T19:18:49.599Z,30.73
2023-02-06T19:21:19.874Z,25.92
2023-02-06T19:23:52.352Z,25.50
2023-02-06T19:26:19.104Z,23.48
2023-02-06T19:28:45.827Z,33.50
2023-02-06T19:31:13.851Z,30.35
2023-02-06T19:33:41.768Z,25.90
2023-02-06T19:36:11.299Z,26.15
2023-02-06T19:38:38.672Z,31.17
2023-02-06T19:41:18.430Z,24.05
2023-02-06T19:43:45.259Z,24.48
2023-02-06T19:46:15.008Z,30.33
2023-02-06T19:48:44.197Z,32.15
2023-02-06T19:51:15.265Z,25.67
2023-02-06T19:53:45.688Z,33.60
2023-02-06T19:56:19.377Z,32.10
2023-02-06T19:58:46.549Z,27.05
2023-02-06T20:01:15.513Z,27.95
2023-02-06T20:03:43.116Z,28.13
2023-02-06T20:06:12.461Z,22.85
2023-02-06T20:08:42.843Z,29.73
2023-02-06T20:11:12.774Z,28.33
2023-02-06T20:13:40.398Z,26.70
2023-02-06T20:16:17.401Z,23.50
2023-02-06T20:18:44.161Z,27.58
2023-02-06T20:21:44.569Z,25.33
2023-02-06T20:24:14.270Z,20.25
2023-02-06T20:26:42.607Z,26.77
2023-02-06T20:29:11.352Z,25.30
2023-02-06T20:31:38.159Z,27.52
2023-02-06T20:34:05.664Z,32.95
2023-02-06T20:36:32.451Z,25.20
2023-02-06T20:39:00.453Z,21.73
2023-02-06T20:41:29.731Z,33.65
2023-02-06T20:43:57.748Z,29.10
2023-02-06T20:46:29.725Z,24.83
2023-02-06T20:48:59.042Z,27.83
2023-02-06T20:51:26.246Z,36.78
2023-02-06T20:53:53.358Z,23.52
2023-02-06T20:56:21.246Z,26.00
2023-02-06T20:58:50.167Z,26.75
2023-02-06T21:01:28.250Z,35.72
2023-02-06T21:04:02.618Z,29.77
2023-02-06T21:06:30.635Z,30.75
2023-02-06T21:09:01.025Z,21.17
2023-02-06T21:11:30.427Z,28.10
2023-02-06T21:13:58.671Z,32.05
2023-02-06T21:16:26.582Z,30.52
2023-02-06T21:18:54.188Z,32.50
2023-02-06T21:21:21.649Z,26.10
2023-02-06T21:23:48.909Z,26.10
2023-02-06T21:26:18.212Z,26.63
2023-02-06T21:28:46.237Z,28.45
2023-02-06T21:31:24.514Z,31.17
2023-02-06T21:33:52.645Z,36.00
2023-02-06T21:36:21.018Z,32.03
2023-02-06T21:38:47.788Z,31.05
2023-02-06T21:41:16.626Z,21.45
2023-02-06T21:43:43.401Z,24.52
2023-02-06T21:46:10.751Z,34.63
2023-02-06T21:48:38.359Z,28.05
2023-02-06T21:51:16.660Z,38.08
2023-02-06T21:53:44.786Z,24.17
2023-02-06T21:56:20.456Z,25.48
2023-02-06T21:58:48.407Z,27.20
2023-02-06T22:01:20.789Z,25.08
2023-02-06T22:03:48.202Z,31.40
2023-02-06T22:06:15.801Z,36.33
2023-02-06T22:08:48.233Z,27.52
2023-02-06T22:11:17.929Z,27.80
2023-02-06T22:13:45.558Z,27.63
2023-02-06T22:16:15.243Z,28.00
2023-02-06T22:18:42.322Z,25.30
2023-02-06T22:21:12.690Z,29.33
2023-02-06T22:23:40.098Z,30.20
2023-02-06T22:26:08.967Z,30.38
2023-02-06T22:28:35.774Z,32.45
2023-02-06T22:31:13.532Z,27.35
2023-02-06T22:33:40.911Z,30.70
2023-02-06T22:36:11.063Z,23.30
2023-02-06T22:38:40.526Z,24.27
2023-02-06T22:41:09.996Z,28.65
2023-02-06T22:43:38.485Z,29.55
2023-02-06T22:46:06.685Z,23.73
2023-02-06T22:48:33.900Z,28.92
2023-02-06T22:51:08.922Z,27.83
2023-02-06T22:53:37.827Z,33.30
2023-02-06T22:56:26.002Z,30.65
2023-02-06T22:58:54.164Z,27.98
2023-02-06T23:01:23.075Z,27.02
2023-02-06T23:03:54.443Z,26.70
2023-02-06T23:06:21.703Z,29.17
2023-02-06T23:08:48.477Z,32.40
2023-02-06T23:11:15.394Z,36.15
2023-02-06T23:13:42.857Z,32.33
2023-02-06T23:16:10.352Z,32.80
2023-02-06T23:18:37.567Z,37.55
2023-02-06T23:21:07.873Z,39.88
2023-02-06T23:23:34.594Z,32.25
2023-02-06T23:26:01.314Z,32.13
2023-02-06T23:28:28.540Z,38.38
2023-02-06T23:30:55.637Z,33.55
2023-02-06T23:33:23.083Z,34.08
2023-02-06T23:35:50.013Z,36.55
2023-02-06T23:38:17.145Z,32.78
2023-02-06T23:40:44.558Z,33.42
2023-02-06T23:43:11.289Z,35.63
2023-02-06T23:45:38.515Z,36.90
2023-02-06T23:48:05.601Z,27.70
2023-02-06T23:50:32.263Z,28.05
2023-02-06T23:52:58.898Z,30.90
2023-02-06T23:55:28.020Z,31.45
2023-02-06T23:57:54.894Z,32.03
